Time;durP1;ratioP1;P1;durP2;ratioP2;P2;SDS_P1;SDS_P2;PMS_P1;PMS_P2;Temp;Humidity;BMP_temperature;BMP_pressure;BME280_temperature;BME280_humidity;BME280_pressure;Samples;Min_cycle;Max_cycle;Signal;HPM_P1;HPM_P2
2022/09/28 00:01:07;;;;;;;1.97;1.00;;;;;;;;;;5084900;28;20143;-70
2022/09/28 00:03:35;;;;;;;1.05;0.68;;;;;;;;;;5078005;28;20530;-69
2022/09/28 00:06:06;;;;;;;1.15;1.05;;;;;;;;;;5070523;28;20526;-69
2022/09/28 00:08:34;;;;;;;3.37;1.13;;;;;;;;;;5073451;28;20032;-69
2022/09/28 00:11:01;;;;;;;2.05;0.90;;;;;;;;;;5086700;28;20323;-69
2022/09/28 00:13:30;;;;;;;0.80;0.80;;;;;;;;;;5087669;28;20047;-69
2022/09/28 00:15:58;;;;;;;2.20;1.00;;;;;;;;;;5068046;28;20036;-69
2022/09/28 00:18:26;;;;;;;2.92;2.65;;;;;;;;;;5069468;28;20040;-69
2022/09/28 00:21:04;;;;;;;1.25;1.02;;;;;;;;;;5070002;28;20052;-69
2022/09/28 00:23:32;;;;;;;1.20;1.10;;;;;;;;;;5082991;28;20117;-69
2022/09/28 00:26:03;;;;;;;1.30;1.10;;;;;;;;;;5087102;28;20083;-69
2022/09/28 00:28:31;;;;;;;1.48;1.20;;;;;;;;;;5086397;28;20496;-69
2022/09/28 00:30:59;;;;;;;1.98;0.93;;;;;;;;;;5079902;28;20028;-69
2022/09/28 00:33:27;;;;;;;1.40;1.10;;;;;;;;;;5068564;28;20036;-68
2022/09/28 00:35:58;;;;;;;1.05;1.00;;;;;;;;;;5086004;28;20123;-69
2022/09/28 00:38:26;;;;;;;3.17;1.30;;;;;;;;;;5132130;22;20049;-76
2022/09/28 00:40:54;;;;;;;3.70;0.90;;;;;;;;;;5065384;28;20131;-76
2022/09/28 00:43:22;;;;;;;0.85;0.85;;;;;;;;;;5051649;28;20051;-76
2022/09/28 00:45:59;;;;;;;2.45;1.00;;;;;;;;;;5051604;28;20139;-75
2022/09/28 00:48:28;;;;;;;4.13;1.00;;;;;;;;;;5066153;28;20059;-75
2022/09/28 00:50:56;;;;;;;2.05;0.93;;;;;;;;;;5072188;28;20119;-75
2022/09/28 00:53:26;;;;;;;3.90;1.30;;;;;;;;;;5065392;28;20044;-76
2022/09/28 00:55:54;;;;;;;2.47;1.02;;;;;;;;;;5071514;28;20043;-75
2022/09/28 00:58:28;;;;;;;0.90;0.90;;;;;;;;;;5070808;28;20052;-76
2022/09/28 01:00:56;;;;;;;3.30;1.13;;;;;;;;;;5071377;28;20086;-75
2022/09/28 01:03:28;;;;;;;0.70;0.68;;;;;;;;;;5071653;28;20040;-75
2022/09/28 01:05:57;;;;;;;3.95;1.30;;;;;;;;;;5063824;28;20040;-76
2022/09/28 01:08:26;;;;;;;1.33;1.20;;;;;;;;;;5069562;28;20063;-75
2022/09/28 01:10:54;;;;;;;1.42;1.00;;;;;;;;;;5067296;28;20120;-76
2022/09/28 01:13:22;;;;;;;0.80;0.80;;;;;;;;;;5088316;28;20042;-76
2022/09/28 01:15:56;;;;;;;0.80;0.80;;;;;;;;;;5071034;28;20040;-75
2022/09/28 01:18:44;;;;;;;1.17;1.02;;;;;;;;;;5053072;28;20094;-75
2022/09/28 01:21:22;;;;;;;0.88;0.70;;;;;;;;;;5068988;28;20032;-75
2022/09/28 01:24:04;;;;;;;3.33;1.38;;;;;;;;;;5067589;28;20036;-76
2022/09/28 01:26:45;;;;;;;1.92;1.48;;;;;;;;;;5081319;28;20072;-76
2022/09/28 01:29:15;;;;;;;2.25;1.73;;;;;;;;;;5049573;28;20075;-76
2022/09/28 01:31:45;;;;;;;3.45;1.10;;;;;;;;;;5051442;28;20116;-76
2022/09/28 01:34:16;;;;;;;5.25;1.27;;;;;;;;;;5050984;28;20036;-77
2022/09/28 01:36:47;;;;;;;0.90;0.90;;;;;;;;;;5049229;28;20051;-76
2022/09/28 01:39:19;;;;;;;1.95;1.00;;;;;;;;;;5063350;28;20386;-76
2022/09/28 01:41:50;;;;;;;1.27;1.17;;;;;;;;;;5057042;28;20094;-76
2022/09/28 01:44:19;;;;;;;1.30;1.10;;;;;;;;;;5074910;28;20303;-76
2022/09/28 01:46:48;;;;;;;2.08;1.20;;;;;;;;;;5050438;28;20224;-77
2022/09/28 01:49:20;;;;;;;1.20;1.10;;;;;;;;;;5051082;28;20052;-77
2022/09/28 01:51:51;;;;;;;1.23;1.10;;;;;;;;;;5051785;28;20410;-77
2022/09/28 01:54:25;;;;;;;1.30;1.20;;;;;;;;;;5064152;28;20040;-77
2022/09/28 01:56:55;;;;;;;1.25;1.20;;;;;;;;;;5065803;28;20658;-77
2022/09/28 01:59:25;;;;;;;1.92;1.15;;;;;;;;;;5049815;28;21839;-77
2022/09/28 02:02:03;;;;;;;5.88;1.30;;;;;;;;;;5084057;28;20055;-77
2022/09/28 02:04:35;;;;;;;1.58;1.00;;;;;;;;;;5070006;28;20523;-77
2022/09/28 02:07:07;;;;;;;1.20;1.10;;;;;;;;;;5065376;28;20044;-77
2022/09/28 02:09:49;;;;;;;1.17;1.13;;;;;;;;;;5060713;28;20040;-77
2022/09/28 02:12:23;;;;;;;1.23;0.65;;;;;;;;;;5087267;28;20036;-77
2022/09/28 02:14:52;;;;;;;3.63;1.50;;;;;;;;;;5069610;28;20047;-77
2022/09/28 02:17:20;;;;;;;2.80;1.20;;;;;;;;;;5061104;28;20047;-77
2022/09/28 02:19:47;;;;;;;1.10;1.02;;;;;;;;;;5086684;28;20126;-77
2022/09/28 02:22:32;;;;;;;2.38;1.40;;;;;;;;;;5068250;28;20413;-77
2022/09/28 02:25:08;;;;;;;3.63;1.40;;;;;;;;;;5068485;28;20573;-77
2022/09/28 02:27:52;;;;;;;4.68;1.52;;;;;;;;;;5059239;28;20090;-77
2022/09/28 02:30:19;;;;;;;3.67;1.77;;;;;;;;;;5051272;28;20031;-77
2022/09/28 02:32:49;;;;;;;4.13;1.75;;;;;;;;;;5087582;28;20125;-77
2022/09/28 02:35:17;;;;;;;8.07;2.10;;;;;;;;;;5051625;28;20040;-77
2022/09/28 02:37:45;;;;;;;5.68;2.67;;;;;;;;;;5067975;28;20126;-77
2022/09/28 02:40:17;;;;;;;6.57;3.00;;;;;;;;;;5064314;28;20571;-77
2022/09/28 02:42:52;;;;;;;4.15;2.47;;;;;;;;;;5053503;28;20063;-77
2022/09/28 02:45:36;;;;;;;24.33;9.50;;;;;;;;;;5018750;28;20052;-78
2022/09/28 02:48:24;;;;;;;47.40;17.70;;;;;;;;;;5048685;28;20063;-79
2022/09/28 02:51:23;;;;;;;5.95;3.28;;;;;;;;;;5067809;28;20039;-77
2022/09/28 02:54:00;;;;;;;3.28;2.03;;;;;;;;;;5069181;28;20044;-78
2022/09/28 02:56:30;;;;;;;1.88;1.77;;;;;;;;;;5060483;28;20040;-77
2022/09/28 02:59:03;;;;;;;1.52;1.10;;;;;;;;;;5078619;28;20039;-77
2022/09/28 03:01:31;;;;;;;2.65;2.45;;;;;;;;;;5052059;28;20044;-77
2022/09/28 03:04:11;;;;;;;6.05;2.83;;;;;;;;;;5060308;28;20040;-77
2022/09/28 03:06:39;;;;;;;6.80;2.70;;;;;;;;;;5061930;28;20592;-77
2022/09/28 03:09:12;;;;;;;4.53;2.92;;;;;;;;;;5069729;28;20047;-77
2022/09/28 03:11:45;;;;;;;4.72;3.65;;;;;;;;;;5050893;28;20417;-78
2022/09/28 03:14:14;;;;;;;5.05;2.33;;;;;;;;;;5063795;28;20114;-77
2022/09/28 03:16:48;;;;;;;4.65;3.72;;;;;;;;;;5049971;28;20040;-77
2022/09/28 03:19:16;;;;;;;3.15;2.78;;;;;;;;;;5059132;28;20040;-77
2022/09/28 03:21:44;;;;;;;4.10;2.17;;;;;;;;;;5066221;28;20045;-77
2022/09/28 03:24:12;;;;;;;2.42;2.22;;;;;;;;;;5073310;28;20067;-77
2022/09/28 03:26:39;;;;;;;3.20;2.75;;;;;;;;;;5090633;28;20493;-77
2022/09/28 03:29:07;;;;;;;3.33;3.03;;;;;;;;;;5073660;28;20032;-77
2022/09/28 03:31:34;;;;;;;5.43;3.08;;;;;;;;;;5065626;28;20037;-77
2022/09/28 03:34:03;;;;;;;4.03;3.58;;;;;;;;;;5087890;28;20492;-77
2022/09/28 03:36:30;;;;;;;6.85;5.15;;;;;;;;;;5087714;28;20509;-77
2022/09/28 03:38:58;;;;;;;3.85;3.45;;;;;;;;;;5068236;28;20093;-77
2022/09/28 03:41:26;;;;;;;5.40;4.25;;;;;;;;;;5067570;28;20048;-77
2022/09/28 03:43:54;;;;;;;4.80;4.07;;;;;;;;;;5065557;28;20094;-77
2022/09/28 03:46:23;;;;;;;5.55;4.13;;;;;;;;;;5061399;28;20450;-78
2022/09/28 03:48:57;;;;;;;4.65;3.78;;;;;;;;;;5053945;28;20036;-81
2022/09/28 03:51:25;;;;;;;4.78;4.28;;;;;;;;;;5072251;28;20036;-77
2022/09/28 03:53:53;;;;;;;9.57;6.65;;;;;;;;;;5071293;28;20040;-77
2022/09/28 03:56:20;;;;;;;7.85;4.25;;;;;;;;;;5071950;28;20482;-77
2022/09/28 03:58:47;;;;;;;5.40;4.40;;;;;;;;;;5066117;28;20048;-77
2022/09/28 04:01:15;;;;;;;7.03;4.60;;;;;;;;;;5058955;28;20072;-77
2022/09/28 04:03:45;;;;;;;3.25;2.85;;;;;;;;;;5072557;28;20060;-77
2022/09/28 04:06:13;;;;;;;10.55;3.75;;;;;;;;;;5072418;28;20051;-77
2022/09/28 04:08:42;;;;;;;5.95;4.25;;;;;;;;;;5090209;28;20086;-77
2022/09/28 04:11:09;;;;;;;6.78;3.78;;;;;;;;;;5070634;28;20048;-77
2022/09/28 04:13:37;;;;;;;8.38;3.30;;;;;;;;;;5067709;28;20071;-77
2022/09/28 04:16:06;;;;;;;4.30;3.08;;;;;;;;;;5062138;28;20032;-77
2022/09/28 04:18:34;;;;;;;8.38;3.35;;;;;;;;;;5056021;28;20044;-77
2022/09/28 04:21:12;;;;;;;8.23;3.40;;;;;;;;;;5041024;28;20052;-77
2022/09/28 04:23:43;;;;;;;;;;;;;;;;;;5086468;28;20576;-77
2022/09/28 04:26:18;;;;;;;4.18;3.15;;;;;;;;;;5056997;28;19924;-77
2022/09/28 04:31:47;;;;;;;3.78;3.03;;;;;;;;;;5066596;28;20032;-77
2022/09/28 04:34:19;;;;;;;7.73;3.60;;;;;;;;;;5060049;28;20044;-77
2022/09/28 04:37:11;;;;;;;6.57;3.80;;;;;;;;;;5074555;28;20040;-77
2022/09/28 04:39:39;;;;;;;8.27;4.10;;;;;;;;;;5060345;28;20105;-77
2022/09/28 04:42:12;;;;;;;8.48;3.97;;;;;;;;;;5041379;28;20102;-78
2022/09/28 04:44:39;;;;;;;6.53;4.00;;;;;;;;;;5061067;28;20131;-76
2022/09/28 04:47:09;;;;;;;7.32;4.70;;;;;;;;;;5075589;28;20463;-77
2022/09/28 04:49:55;;;;;;;6.03;4.32;;;;;;;;;;5080720;28;20511;-79
2022/09/28 04:52:30;;;;;;;8.40;6.07;;;;;;;;;;5062711;28;20593;-77
2022/09/28 04:54:57;;;;;;;4.72;4.22;;;;;;;;;;5029914;28;20106;-84
2022/09/28 04:57:27;;;;;;;5.95;3.92;;;;;;;;;;5064170;28;20570;-77
2022/09/28 04:59:57;;;;;;;8.00;3.42;;;;;;;;;;5045539;28;20103;-77
2022/09/28 05:02:25;;;;;;;9.80;5.55;;;;;;;;;;5049914;28;20055;-77
2022/09/28 05:05:14;;;;;;;11.15;5.57;;;;;;;;;;5070440;28;20044;-77
2022/09/28 05:07:58;;;;;;;7.32;4.30;;;;;;;;;;5080971;28;20497;-77
2022/09/28 05:10:25;;;;;;;8.20;5.43;;;;;;;;;;5042570;28;20039;-77
2022/09/28 05:12:53;;;;;;;7.20;4.00;;;;;;;;;;5083112;28;20074;-77
2022/09/28 05:15:20;;;;;;;9.32;3.80;;;;;;;;;;5050024;28;20184;-77
2022/09/28 05:17:51;;;;;;;6.18;4.32;;;;;;;;;;5070076;28;20120;-77
2022/09/28 05:20:40;;;;;;;8.65;4.55;;;;;;;;;;5087272;28;20110;-77
2022/09/28 05:23:11;;;;;;;4.95;3.92;;;;;;;;;;5082197;28;20072;-77
2022/09/28 05:25:40;;;;;;;8.70;5.00;;;;;;;;;;5060885;28;20113;-77
2022/09/28 05:28:26;;;;;;;11.15;5.65;;;;;;;;;;5061677;28;20051;-77
2022/09/28 05:31:31;;;;;;;8.32;5.05;;;;;;;;;;5054634;28;20040;-77
2022/09/28 05:34:20;;;;;;;9.95;4.95;;;;;;;;;;5047069;28;20055;-77
2022/09/28 05:36:47;;;;;;;8.95;4.90;;;;;;;;;;5060580;28;20033;-77
2022/09/28 05:39:16;;;;;;;10.55;4.72;;;;;;;;;;5064426;28;20036;-77
2022/09/28 05:41:44;;;;;;;4.07;3.70;;;;;;;;;;5059442;28;20070;-77
2022/09/28 05:44:11;;;;;;;6.43;4.47;;;;;;;;;;5043528;28;20421;-78
2022/09/28 05:46:39;;;;;;;5.32;4.72;;;;;;;;;;5062600;28;20071;-84
2022/09/28 05:49:08;;;;;;;6.15;4.18;;;;;;;;;;5041799;28;20040;-76
2022/09/28 05:51:38;;;;;;;6.82;4.07;;;;;;;;;;5061681;28;20576;-77
2022/09/28 05:54:05;;;;;;;8.48;4.93;;;;;;;;;;5064643;28;20039;-77
2022/09/28 05:56:35;;;;;;;21.60;12.27;;;;;;;;;;5040679;28;20048;-79
2022/09/28 05:59:05;;;;;;;11.70;6.18;;;;;;;;;;5045144;28;20048;-77
2022/09/28 06:01:32;;;;;;;8.65;4.55;;;;;;;;;;5051237;28;20056;-77
2022/09/28 06:04:01;;;;;;;5.97;4.95;;;;;;;;;;5045020;28;20560;-75
2022/09/28 06:06:28;;;;;;;8.23;5.78;;;;;;;;;;5058605;28;20097;-77
2022/09/28 06:08:56;;;;;;;8.75;5.45;;;;;;;;;;5062644;28;20037;-77
2022/09/28 06:11:39;;;;;;;9.48;5.72;;;;;;;;;;5045121;28;20127;-77
2022/09/28 06:14:30;;;;;;;7.60;5.20;;;;;;;;;;5077082;28;20040;-76
2022/09/28 06:16:57;;;;;;;9.07;6.35;;;;;;;;;;5063213;28;20064;-77
2022/09/28 06:19:24;;;;;;;6.97;5.57;;;;;;;;;;5058566;28;20048;-77
2022/09/28 06:22:23;;;;;;;10.98;7.30;;;;;;;;;;5073581;28;20068;-77
2022/09/28 06:25:00;;;;;;;11.00;7.35;;;;;;;;;;5058912;28;20040;-77
2022/09/28 06:27:27;;;;;;;11.73;8.15;;;;;;;;;;5061622;28;20090;-77
2022/09/28 06:29:54;;;;;;;12.02;8.25;;;;;;;;;;5060162;28;20047;-77
2022/09/28 06:32:21;;;;;;;7.63;6.43;;;;;;;;;;5060305;28;20040;-77
2022/09/28 06:34:50;;;;;;;6.00;5.38;;;;;;;;;;5065424;28;20070;-77
2022/09/28 06:37:24;;;;;;;9.80;5.15;;;;;;;;;;5087409;23;20051;-78
2022/09/28 06:39:52;;;;;;;5.65;4.65;;;;;;;;;;5046506;28;20509;-77
2022/09/28 06:42:20;;;;;;;8.02;6.10;;;;;;;;;;5049522;28;20036;-77
2022/09/28 06:45:07;;;;;;;7.35;6.25;;;;;;;;;;5049598;28;20051;-78
2022/09/28 06:48:03;;;;;;;7.97;6.07;;;;;;;;;;5035928;28;20043;-78
2022/09/28 06:50:38;;;;;;;5.45;4.47;;;;;;;;;;5078472;28;20040;-78
2022/09/28 06:53:27;;;;;;;6.63;5.45;;;;;;;;;;5075619;28;20667;-79
2022/09/28 06:56:19;;;;;;;7.72;5.70;;;;;;;;;;5079533;28;20512;-78
2022/09/28 06:58:47;;;;;;;8.10;4.32;;;;;;;;;;5060019;28;20451;-78
2022/09/28 07:01:14;;;;;;;5.40;4.90;;;;;;;;;;5061253;28;20070;-79
2022/09/28 07:03:55;;;;;;;5.15;4.45;;;;;;;;;;5083679;28;20056;-78
2022/09/28 07:06:46;;;;;;;8.82;4.45;;;;;;;;;;5079015;28;20072;-79
2022/09/28 07:09:32;;;;;;;5.28;3.55;;;;;;;;;;5078554;28;20039;-79
2022/09/28 07:12:12;;;;;;;7.75;3.70;;;;;;;;;;5049911;28;20048;-78
2022/09/28 07:14:48;;;;;;;5.20;3.95;;;;;;;;;;5085496;28;20078;-78
2022/09/28 07:17:16;;;;;;;3.33;3.03;;;;;;;;;;5045363;28;20039;-79
2022/09/28 07:19:44;;;;;;;7.00;4.18;;;;;;;;;;5081862;28;20128;-78
2022/09/28 07:22:13;;;;;;;6.47;4.47;;;;;;;;;;5057000;28;20040;-79
2022/09/28 07:24:46;;;;;;;4.22;3.58;;;;;;;;;;5034204;28;20051;-78
2022/09/28 07:27:31;;;;;;;8.30;3.97;;;;;;;;;;5080621;28;20501;-78
2022/09/28 07:30:33;;;;;;;4.97;4.03;;;;;;;;;;5075153;28;20040;-78
2022/09/28 07:33:10;;;;;;;6.65;4.68;;;;;;;;;;5070714;28;20070;-79
2022/09/28 07:35:54;;;;;;;4.88;3.85;;;;;;;;;;5078124;28;20044;-79
2022/09/28 07:38:27;;;;;;;4.57;3.85;;;;;;;;;;5050300;28;20035;-79
2022/09/28 07:41:12;;;;;;;4.25;3.85;;;;;;;;;;5085707;28;20045;-80
2022/09/28 07:43:46;;;;;;;4.40;3.88;;;;;;;;;;5101494;28;20410;-83
2022/09/28 07:46:13;;;;;;;3.78;3.42;;;;;;;;;;5069284;28;20048;-78
2022/09/28 07:48:50;;;;;;;3.38;2.85;;;;;;;;;;5076692;28;20043;-79
2022/09/28 07:51:32;;;;;;;4.70;3.60;;;;;;;;;;5079657;28;20119;-79
2022/09/28 07:54:17;;;;;;;6.72;4.40;;;;;;;;;;5074961;28;20501;-79
2022/09/28 07:57:02;;;;;;;4.72;3.75;;;;;;;;;;5076101;28;20393;-78
2022/09/28 07:59:45;;;;;;;6.40;4.85;;;;;;;;;;5048983;28;20039;-78
2022/09/28 08:02:36;;;;;;;5.95;5.05;;;;;;;;;;5067078;28;20090;-78
2022/09/28 08:05:04;;;;;;;7.45;5.10;;;;;;;;;;5073210;28;20118;-78
2022/09/28 08:07:33;;;;;;;7.78;4.72;;;;;;;;;;5061380;28;20120;-78
2022/09/28 08:10:06;;;;;;;14.50;11.77;;;;;;;;;;5063069;28;20427;-78
2022/09/28 08:12:55;;;;;;;14.07;11.40;;;;;;;;;;5079307;28;20033;-78
2022/09/28 08:15:50;;;;;;;10.25;7.95;;;;;;;;;;5073149;28;20044;-78
2022/09/28 08:18:25;;;;;;;5.88;4.53;;;;;;;;;;5064952;28;20425;-78
2022/09/28 08:23:38;;;;;;;5.68;4.25;;;;;;;;;;5090664;28;20516;-78
2022/09/28 08:26:06;;;;;;;7.40;4.75;;;;;;;;;;5063805;28;20090;-85
2022/09/28 08:28:38;;;;;;;5.63;3.72;;;;;;;;;;5094319;28;20105;-78
2022/09/28 08:31:26;;;;;;;2.63;2.40;;;;;;;;;;5091861;28;20032;-78
2022/09/28 08:34:13;;;;;;;3.80;3.13;;;;;;;;;;5049515;28;20076;-77
2022/09/28 08:36:58;;;;;;;4.80;3.70;;;;;;;;;;5089751;28;20842;-79
2022/09/28 08:39:43;;;;;;;4.70;4.03;;;;;;;;;;5084561;28;20044;-79
2022/09/28 08:42:50;;;;;;;5.28;4.30;;;;;;;;;;5054865;28;20059;-78
2022/09/28 08:45:33;;;;;;;7.10;5.57;;;;;;;;;;5053572;28;20568;-78
2022/09/28 08:51:17;;;;;;;7.43;5.32;;;;;;;;;;5088205;28;20048;-79
2022/09/28 08:54:06;;;;;;;7.72;5.43;;;;;;;;;;5089227;28;20440;-78
2022/09/28 08:56:54;;;;;;;5.75;4.75;;;;;;;;;;5071399;28;20090;-79
2022/09/28 08:59:25;;;;;;;9.48;6.20;;;;;;;;;;5053633;28;20123;-78
2022/09/28 09:02:03;;;;;;;7.95;6.40;;;;;;;;;;5076462;28;20051;-79
2022/09/28 09:04:33;;;;;;;;;;;;;;;;;;5082324;28;20569;-78
2022/09/28 09:07:14;;;;;;;8.35;6.90;;;;;;;;;;5084037;28;19924;-79
2022/09/28 09:09:56;;;;;;;9.35;6.40;;;;;;;;;;5079788;28;20047;-78
2022/09/28 09:12:39;;;;;;;8.93;5.07;;;;;;;;;;5067116;28;20051;-78
2022/09/28 09:15:13;;;;;;;7.32;5.63;;;;;;;;;;5088292;28;20048;-79
2022/09/28 09:18:07;;;;;;;10.10;6.97;;;;;;;;;;5070046;28;20111;-78
2022/09/28 09:20:55;;;;;;;8.70;5.18;;;;;;;;;;5068421;28;20059;-79
2022/09/28 09:23:46;;;;;;;6.78;5.70;;;;;;;;;;5086752;28;20508;-79
2022/09/28 09:26:21;;;;;;;6.40;5.82;;;;;;;;;;5086085;28;20052;-78
2022/09/28 09:29:04;;;;;;;6.00;5.40;;;;;;;;;;5069970;28;20327;-78
2022/09/28 09:31:38;;;;;;;13.68;8.10;;;;;;;;;;5069666;28;20052;-78
2022/09/28 09:34:12;;;;;;;7.03;6.43;;;;;;;;;;5086024;28;20042;-78
2022/09/28 09:37:21;;;;;;;7.78;6.28;;;;;;;;;;5080974;28;20044;-79
2022/09/28 09:40:28;;;;;;;10.52;8.30;;;;;;;;;;5032334;28;20061;-77
2022/09/28 09:43:04;;;;;;;11.77;6.80;;;;;;;;;;5066725;28;20167;-78
2022/09/28 09:45:53;;;;;;;9.75;7.50;;;;;;;;;;5047961;28;20451;-79
2022/09/28 09:48:50;;;;;;;10.45;8.15;;;;;;;;;;5046171;28;20060;-79
2022/09/28 09:51:20;;;;;;;5.05;4.50;;;;;;;;;;5052747;28;20048;-79
2022/09/28 09:53:58;;;;;;;9.35;7.88;;;;;;;;;;5016398;28;20052;-84
2022/09/28 09:56:55;;;;;;;11.73;6.97;;;;;;;;;;5048719;28;20136;-79
2022/09/28 09:59:44;;;;;;;10.60;9.20;;;;;;;;;;5051491;28;20057;-79
2022/09/28 10:02:41;;;;;;;10.43;7.82;;;;;;;;;;5066949;28;20048;-78
2022/09/28 10:05:26;;;;;;;10.38;8.18;;;;;;;;;;5048959;28;20048;-79
2022/09/28 10:08:01;;;;;;;9.57;7.70;;;;;;;;;;5048482;28;20066;-79
2022/09/28 10:10:36;;;;;;;10.10;7.70;;;;;;;;;;5066918;28;20053;-79
2022/09/28 10:13:08;;;;;;;6.63;5.93;;;;;;;;;;5065401;28;20045;-79
2022/09/28 10:15:36;;;;;;;4.80;4.45;;;;;;;;;;5064988;28;20386;-78
2022/09/28 10:18:15;;;;;;;5.65;5.18;;;;;;;;;;5048824;28;20048;-79
2022/09/28 10:21:01;;;;;;;6.38;5.78;;;;;;;;;;5049428;28;20079;-79
2022/09/28 10:23:49;;;;;;;5.90;5.20;;;;;;;;;;5060834;28;20041;-79
2022/09/28 10:26:23;;;;;;;10.80;6.40;;;;;;;;;;5057516;28;20070;-80
2022/09/28 10:28:58;;;;;;;5.03;4.63;;;;;;;;;;5081791;28;20428;-78
2022/09/28 10:31:40;;;;;;;4.60;4.18;;;;;;;;;;5040475;28;20056;-78
2022/09/28 10:34:14;;;;;;;7.68;4.43;;;;;;;;;;5083836;28;20043;-79
2022/09/28 10:37:00;;;;;;;5.70;4.40;;;;;;;;;;5056205;28;20063;-78
2022/09/28 10:39:36;;;;;;;4.32;3.75;;;;;;;;;;5052053;28;20097;-77
2022/09/28 10:42:10;;;;;;;4.50;4.10;;;;;;;;;;5065765;28;20044;-78
2022/09/28 10:44:48;;;;;;;6.25;4.60;;;;;;;;;;5068554;28;20049;-78
2022/09/28 10:47:45;;;;;;;4.10;3.08;;;;;;;;;;5066820;28;20048;-78
2022/09/28 10:50:26;;;;;;;5.03;4.53;;;;;;;;;;5049313;28;20056;-79
2022/09/28 10:53:15;;;;;;;4.97;3.92;;;;;;;;;;5053583;28;20036;-77
2022/09/28 10:56:19;;;;;;;4.00;3.67;;;;;;;;;;5067011;28;20494;-78
2022/09/28 10:58:50;;;;;;;3.97;3.60;;;;;;;;;;5048366;28;20139;-78
2022/09/28 11:01:37;;;;;;;4.80;4.32;;;;;;;;;;5035119;28;20114;-78
2022/09/28 11:04:09;;;;;;;5.03;3.30;;;;;;;;;;5057928;28;20054;-81
2022/09/28 11:06:38;;;;;;;4.40;3.80;;;;;;;;;;5048003;28;20109;-78
2022/09/28 11:09:27;;;;;;;4.32;3.35;;;;;;;;;;5085062;28;20124;-78
2022/09/28 11:12:04;;;;;;;8.60;4.15;;;;;;;;;;5069915;28;20073;-78
2022/09/28 11:14:37;;;;;;;7.60;4.03;;;;;;;;;;5081699;28;20124;-79
2022/09/28 11:17:37;;;;;;;6.63;3.80;;;;;;;;;;5049493;28;20048;-79
2022/09/28 11:20:23;;;;;;;2.75;2.55;;;;;;;;;;5049778;28;20490;-79
2022/09/28 11:23:11;;;;;;;4.72;3.65;;;;;;;;;;5052880;28;20049;-78
2022/09/28 11:25:41;;;;;;;4.10;3.60;;;;;;;;;;5033527;28;20139;-78
2022/09/28 11:28:19;;;;;;;4.60;3.97;;;;;;;;;;5051550;28;20854;-78
2022/09/28 11:30:50;;;;;;;4.53;3.70;;;;;;;;;;5065771;28;20048;-78
2022/09/28 11:33:31;;;;;;;4.55;3.92;;;;;;;;;;5066730;28;20460;-78
2022/09/28 11:36:29;;;;;;;4.85;3.45;;;;;;;;;;5051880;28;20352;-78
2022/09/28 11:39:08;;;;;;;10.45;4.50;;;;;;;;;;5067310;28;20044;-78
2022/09/28 11:41:49;;;;;;;4.85;4.00;;;;;;;;;;5040330;28;20131;-78
2022/09/28 11:44:36;;;;;;;7.60;4.25;;;;;;;;;;5051965;28;20501;-78
2022/09/28 11:47:16;;;;;;;4.72;4.32;;;;;;;;;;5062710;28;20063;-78
2022/09/28 11:50:02;;;;;;;5.88;3.58;;;;;;;;;;5052406;28;20052;-79
2022/09/28 11:52:39;;;;;;;1.90;1.80;;;;;;;;;;5068010;28;20115;-79
2022/09/28 11:55:13;;;;;;;3.25;2.80;;;;;;;;;;5051379;28;20127;-78
2022/09/28 11:57:42;;;;;;;3.30;3.00;;;;;;;;;;5050560;28;20507;-79
2022/09/28 12:00:11;;;;;;;3.08;2.42;;;;;;;;;;5067271;28;20118;-79
2022/09/28 12:02:54;;;;;;;2.38;2.08;;;;;;;;;;5067636;28;20049;-79
2022/09/28 12:05:47;;;;;;;3.05;2.20;;;;;;;;;;5064242;28;20072;-78
2022/09/28 12:08:19;;;;;;;1.50;1.40;;;;;;;;;;5062429;28;20057;-78
2022/09/28 12:11:05;;;;;;;2.10;1.90;;;;;;;;;;5069025;28;20391;-78
2022/09/28 12:13:53;;;;;;;3.03;1.10;;;;;;;;;;5067156;28;20123;-79
2022/09/28 12:16:24;;;;;;;1.77;1.40;;;;;;;;;;5068262;28;20044;-78
2022/09/28 12:19:20;;;;;;;1.85;1.70;;;;;;;;;;5067942;28;20125;-78
2022/09/28 12:21:50;;;;;;;1.33;1.23;;;;;;;;;;5071168;28;20497;-78
2022/09/28 12:24:17;;;;;;;1.95;1.50;;;;;;;;;;5083531;28;20055;-79
2022/09/28 12:26:56;;;;;;;1.15;0.90;;;;;;;;;;5066857;28;20052;-78
2022/09/28 12:29:29;;;;;;;2.15;1.10;;;;;;;;;;5068476;28;20116;-78
2022/09/28 12:31:59;;;;;;;1.30;1.30;;;;;;;;;;5067006;28;20056;-78
2022/09/28 12:34:26;;;;;;;1.17;1.08;;;;;;;;;;5032928;28;20056;-78
2022/09/28 12:37:06;;;;;;;2.33;2.13;;;;;;;;;;5078340;28;20068;-78
2022/09/28 12:39:42;;;;;;;1.30;1.20;;;;;;;;;;5101784;22;20052;-76
2022/09/28 12:42:27;;;;;;;2.35;1.20;;;;;;;;;;5088989;28;20048;-75
2022/09/28 12:44:58;;;;;;;1.73;1.08;;;;;;;;;;5108764;28;20040;-75
2022/09/28 12:47:41;;;;;;;1.58;0.90;;;;;;;;;;5091034;28;20508;-76
2022/09/28 12:50:17;;;;;;;2.50;1.00;;;;;;;;;;5088179;28;20124;-76
2022/09/28 12:53:24;;;;;;;0.50;0.50;;;;;;;;;;5087909;28;20042;-76
2022/09/28 12:55:56;;;;;;;0.70;0.68;;;;;;;;;;5069962;28;20513;-76
2022/09/28 12:58:29;;;;;;;1.38;1.27;;;;;;;;;;5087943;28;20071;-75
2022/09/28 13:01:08;;;;;;;5.47;1.00;;;;;;;;;;5070138;28;20494;-76
2022/09/28 13:03:54;;;;;;;0.93;0.90;;;;;;;;;;5053573;28;20501;-76
2022/09/28 13:06:24;;;;;;;0.63;0.63;;;;;;;;;;5088580;28;20188;-76
2022/09/28 13:08:52;;;;;;;1.25;0.70;;;;;;;;;;5087969;28;20406;-76
2022/09/28 13:11:32;;;;;;;0.70;0.70;;;;;;;;;;5089067;28;20050;-75
2022/09/28 13:14:08;;;;;;;1.27;1.13;;;;;;;;;;5070326;28;20040;-76
2022/09/28 13:16:48;;;;;;;0.70;0.70;;;;;;;;;;5070602;28;20052;-75
2022/09/28 13:19:37;;;;;;;0.80;0.80;;;;;;;;;;5072911;28;20039;-76
2022/09/28 13:22:24;;;;;;;1.10;0.80;;;;;;;;;;5068426;28;20663;-76
2022/09/28 13:24:54;;;;;;;1.27;1.25;;;;;;;;;;5068678;28;20040;-76
2022/09/28 13:27:29;;;;;;;0.82;0.70;;;;;;;;;;5066371;28;20119;-76
2022/09/28 13:30:05;;;;;;;1.20;0.70;;;;;;;;;;5066463;28;20041;-77
2022/09/28 13:32:32;;;;;;;1.15;0.90;;;;;;;;;;5060197;28;20064;-77
2022/09/28 13:35:04;;;;;;;0.77;0.77;;;;;;;;;;5066966;28;20120;-77
2022/09/28 13:37:32;;;;;;;1.40;1.05;;;;;;;;;;5047502;28;20072;-76
2022/09/28 13:40:04;;;;;;;1.10;1.00;;;;;;;;;;5066496;28;20171;-77
2022/09/28 13:42:41;;;;;;;1.23;1.10;;;;;;;;;;5066609;28;20041;-77
2022/09/28 13:45:08;;;;;;;1.52;1.42;;;;;;;;;;5066247;28;20040;-77
2022/09/28 13:47:38;;;;;;;1.50;1.40;;;;;;;;;;5065542;28;20044;-77
2022/09/28 13:50:15;;;;;;;2.60;1.23;;;;;;;;;;5060045;28;20067;-77
2022/09/28 13:52:52;;;;;;;1.95;1.65;;;;;;;;;;5058278;28;20113;-76
2022/09/28 13:55:49;;;;;;;1.77;1.67;;;;;;;;;;5054457;28;20779;-76
2022/09/28 13:58:29;;;;;;;2.38;1.50;;;;;;;;;;4987125;28;20528;-76
2022/09/28 14:01:09;;;;;;;1.00;0.80;;;;;;;;;;5031758;28;20593;-76
2022/09/28 14:03:36;;;;;;;1.10;1.10;;;;;;;;;;5066355;28;20537;-77
2022/09/28 14:06:04;;;;;;;2.55;1.70;;;;;;;;;;5031559;28;20032;-77
2022/09/28 14:08:39;;;;;;;4.47;3.72;;;;;;;;;;5020751;28;20187;-77
2022/09/28 14:11:23;;;;;;;4.72;2.40;;;;;;;;;;5058750;28;20048;-75
2022/09/28 14:13:57;;;;;;;1.70;1.60;;;;;;;;;;5048412;28;20049;-78
2022/09/28 14:16:26;;;;;;;3.70;3.03;;;;;;;;;;5067555;28;20056;-78
2022/09/28 14:18:56;;;;;;;2.20;2.10;;;;;;;;;;5063720;28;20048;-76
2022/09/28 14:21:27;;;;;;;1.25;1.00;;;;;;;;;;5064449;28;20045;-77
2022/09/28 14:24:12;;;;;;;3.08;1.30;;;;;;;;;;5067621;28;20132;-77
2022/09/28 14:26:52;;;;;;;3.10;1.77;;;;;;;;;;5066578;28;20525;-74
2022/09/28 14:29:28;;;;;;;4.07;2.08;;;;;;;;;;5051479;28;20533;-75
2022/09/28 14:31:57;;;;;;;3.08;1.58;;;;;;;;;;5047107;28;20456;-77
2022/09/28 14:34:26;;;;;;;3.00;1.10;;;;;;;;;;5064754;28;20052;-75
2022/09/28 14:42:29;;;;;;;1.08;1.08;;;;;;;;;;5064883;28;20131;-77
2022/09/28 14:45:02;;;;;;;6.35;1.30;;;;;;;;;;5063620;28;20060;-76
2022/09/28 14:47:39;;;;;;;2.70;1.20;;;;;;;;;;5047376;28;20040;-75
2022/09/28 14:50:19;;;;;;;1.27;1.15;;;;;;;;;;5043254;28;20044;-76
2022/09/28 14:52:48;;;;;;;2.95;1.10;;;;;;;;;;5046888;28;20058;-76
2022/09/28 14:55:17;;;;;;;1.63;0.80;;;;;;;;;;5048393;28;20036;-76
2022/09/28 14:57:50;;;;;;;0.93;0.82;;;;;;;;;;5066119;28;20131;-76
2022/09/28 15:00:23;;;;;;;1.65;0.85;;;;;;;;;;5027665;28;20118;-80
2022/09/28 15:02:51;;;;;;;1.50;0.80;;;;;;;;;;5045311;28;20048;-76
2022/09/28 15:05:29;;;;;;;1.60;1.00;;;;;;;;;;5060470;28;20048;-75
2022/09/28 15:07:57;;;;;;;1.65;0.80;;;;;;;;;;5066829;28;20049;-75
2022/09/28 15:10:27;;;;;;;1.70;0.80;;;;;;;;;;5067341;28;20068;-75
2022/09/28 15:12:56;;;;;;;0.85;0.80;;;;;;;;;;5049240;28;20057;-75
2022/09/28 15:15:53;;;;;;;2.08;1.20;;;;;;;;;;5047993;28;20612;-75
2022/09/28 15:18:20;;;;;;;1.33;1.23;;;;;;;;;;5052142;28;20398;-75
2022/09/28 15:20:48;;;;;;;1.05;0.90;;;;;;;;;;5068160;28;20068;-75
2022/09/28 15:23:34;;;;;;;0.82;0.82;;;;;;;;;;5069148;28;20040;-75
2022/09/28 15:26:02;;;;;;;1.20;1.10;;;;;;;;;;5068793;28;20052;-75
2022/09/28 15:28:30;;;;;;;4.13;1.50;;;;;;;;;;5070195;28;20046;-75
2022/09/28 15:30:59;;;;;;;2.72;1.52;;;;;;;;;;5066263;28;20045;-76
2022/09/28 15:36:26;;;;;;;1.63;1.50;;;;;;;;;;5067686;28;20075;-75
2022/09/28 15:39:03;;;;;;;1.50;1.40;;;;;;;;;;5045362;28;20065;-76
2022/09/28 15:41:30;;;;;;;3.40;1.30;;;;;;;;;;5068553;28;20462;-75
2022/09/28 15:44:10;;;;;;;5.60;1.45;;;;;;;;;;5067964;28;20045;-81
2022/09/28 15:46:39;;;;;;;2.55;1.05;;;;;;;;;;5047719;28;20048;-75
2022/09/28 15:49:07;;;;;;;3.20;1.30;;;;;;;;;;5032214;28;20049;-75
2022/09/28 15:51:47;;;;;;;2.95;1.15;;;;;;;;;;5050852;28;20045;-75